Time;durP1;ratioP1;P1;durP2;ratioP2;P2;SDS_P1;SDS_P2;PMS_P1;PMS_P2;Temp;Humidity;BMP_temperature;BMP_pressure;BME280_temperature;BME280_humidity;BME280_pressure;Samples;Min_cycle;Max_cycle;Signal;HPM_P1;HPM_P2
2021/11/04 00:00:00;;;;;;;;;8.00;6.67;;;;;18.07;45.60;100328.16;5057235;28;45353;-67
2021/11/04 00:02:25;;;;;;;;;8.00;8.00;;;;;18.06;45.77;100329.09;5057371;28;45341;-73
2021/11/04 00:04:51;;;;;;;;;6.00;5.00;;;;;18.06;45.77;100315.78;5056990;28;46171;-73
2021/11/04 00:07:17;;;;;;;;;7.67;6.00;;;;;18.06;45.76;100315.78;5057153;28;45374;-70
2021/11/04 00:09:43;;;;;;;;;6.67;6.67;;;;;18.05;45.78;100324.66;5057416;28;45346;-73
2021/11/04 00:12:09;;;;;;;;;9.33;5.67;;;;;18.05;45.60;100314.91;5057253;28;45301;-70
2021/11/04 00:14:34;;;;;;;;;6.00;6.00;;;;;18.05;45.62;100320.22;5057102;28;46404;-73
2021/11/04 00:17:00;;;;;;;;;6.00;5.67;;;;;18.05;45.54;100316.69;5056972;28;45409;-73
2021/11/04 00:19:26;;;;;;;;;7.33;6.67;;;;;18.01;45.80;100318.53;5057181;28;45202;-70
2021/11/04 00:21:51;;;;;;;;;6.00;6.00;;;;;18.04;45.64;100320.25;5056806;28;45250;-71
2021/11/04 00:24:17;;;;;;;;;7.00;7.00;;;;;18.02;45.87;100312.28;5056945;28;46972;-70
2021/11/04 00:26:43;;;;;;;;;6.00;6.00;;;;;18.03;45.70;100315.84;5056731;28;45406;-73
2021/11/04 00:29:08;;;;;;;;;6.33;6.33;;;;;18.01;45.73;100307.00;5056982;28;45416;-69
2021/11/04 00:31:34;;;;;;;;;10.00;6.00;;;;;18.02;45.44;100308.78;5057093;28;45374;-74
2021/11/04 00:33:59;;;;;;;;;8.00;7.00;;;;;18.02;45.69;100316.75;5056741;28;47030;-74
2021/11/04 00:36:25;;;;;;;;;2.67;2.67;;;;;18.02;45.85;100314.94;5056689;28;45427;-64
2021/11/04 00:38:50;;;;;;;;;6.00;6.00;;;;;18.01;45.77;100313.22;5056835;28;45245;-68
2021/11/04 00:41:17;;;;;;;;;7.00;7.00;;;;;18.01;45.78;100315.88;5056920;28;45472;-70
2021/11/04 00:43:43;;;;;;;;;6.00;6.00;;;;;18.01;45.56;100318.53;5056512;28;46157;-71
2021/11/04 00:46:09;;;;;;;;;5.67;5.67;;;;;18.01;45.98;100328.28;5056403;28;45426;-73
2021/11/04 00:48:35;;;;;;;;;7.67;7.00;;;;;18.01;45.74;100322.97;5056852;28;45160;-74
2021/11/04 00:51:00;;;;;;;;;9.00;7.33;;;;;18.01;45.56;100328.28;5056789;28;45632;-67
2021/11/04 00:53:26;;;;;;;;;8.00;6.67;;;;;18.01;45.79;100330.94;5056356;28;46956;-68
2021/11/04 00:55:51;;;;;;;;;7.33;6.00;;;;;18.02;45.92;100330.06;5056464;28;45359;-71
2021/11/04 00:58:18;;;;;;;;;9.33;7.00;;;;;18.00;45.93;100326.56;5056618;28;45357;-70
2021/11/04 01:00:44;;;;;;;;;7.00;7.00;;;;;18.01;45.71;100338.91;5056852;28;45446;-71
2021/11/04 01:03:10;;;;;;;;;6.00;6.00;;;;;18.00;45.47;100340.69;5056233;28;47054;-71
2021/11/04 01:05:35;;;;;;;;;9.00;7.00;;;;;18.00;45.73;100334.53;5056062;28;45338;-67
2021/11/04 01:08:00;;;;;;;;;6.33;6.00;;;;;18.00;45.77;100337.19;5056298;28;45396;-74
2021/11/04 01:10:27;;;;;;;;;7.33;7.00;;;;;18.00;45.77;100331.88;5056755;28;45294;-71
2021/11/04 01:12:52;;;;;;;;;7.67;6.00;;;;;17.99;45.91;100332.75;5056414;28;45932;-67
2021/11/04 01:15:19;;;;;;;;;6.00;6.00;;;;;18.00;45.78;100331.88;5056081;28;45344;-73
2021/11/04 01:17:44;;;;;;;;;6.00;5.67;;;;;17.99;45.62;100330.09;5056145;28;45234;-73
2021/11/04 01:20:10;;;;;;;;;6.67;6.33;;;;;17.99;45.51;100332.75;5056330;28;45313;-73
2021/11/04 01:22:36;;;;;;;;;8.00;6.67;;;;;17.98;45.63;100326.56;5056072;28;47063;-67
2021/11/04 01:25:03;;;;;;;;;8.67;7.33;;;;;17.99;45.68;100322.13;5056163;28;45309;-64
2021/11/04 01:27:29;;;;;;;;;7.00;7.00;;;;;17.98;45.55;100325.69;5056136;28;45310;-66
2021/11/04 01:29:55;;;;;;;;;9.00;7.33;;;;;17.99;45.48;100324.78;5055896;28;45576;-73
2021/11/04 01:32:21;;;;;;;;;7.33;6.00;;;;;17.99;45.82;100324.78;5055827;28;46206;-70
2021/11/04 01:34:46;;;;;;;;;6.50;6.50;;;;;17.98;45.59;100328.38;5057423;28;45661;-73
2021/11/04 01:37:12;;;;;;;;;9.33;6.67;;;;;17.98;45.76;100339.00;5059736;28;45482;-70
2021/11/04 01:39:37;;;;;;;;;8.00;6.67;;;;;17.97;45.37;100331.91;5059856;28;45151;-71
2021/11/04 01:42:03;;;;;;;;;7.33;7.33;;;;;17.98;45.79;100333.69;5059282;28;45972;-68
2021/11/04 01:44:28;;;;;;;;;9.00;6.00;;;;;17.98;45.56;100337.19;5059417;28;45299;-70
2021/11/04 01:46:54;;;;;;;;;6.00;6.00;;;;;17.98;45.59;100339.00;5059324;28;45291;-72
2021/11/04 01:49:19;;;;;;;;;8.00;7.00;;;;;17.97;45.48;100326.59;5059664;28;45313;-72
2021/11/04 01:51:45;;;;;;;;;8.33;6.00;;;;;17.97;45.91;100331.91;5059382;28;46304;-72
2021/11/04 01:54:12;;;;;;;;;9.33;8.00;;;;;17.97;45.45;100323.94;5059304;28;45463;-70
2021/11/04 01:56:38;;;;;;;;;7.67;6.33;;;;;17.97;45.17;100321.28;5059437;28;45421;-68
2021/11/04 01:59:05;;;;;;;;;8.33;8.00;;;;;17.96;45.57;100331.03;5059427;28;45365;-65
2021/11/04 02:01:31;;;;;;;;;10.67;8.00;;;;;17.96;45.74;100330.19;5059217;28;45337;-70
2021/11/04 02:04:35;;;;;;;;;10.67;8.00;;;;;17.97;45.61;100340.78;5058796;28;45350;-72
2021/11/04 02:07:16;;;;;;;;;8.33;7.00;;;;;17.97;45.71;100326.59;5056847;28;45448;-71
2021/11/04 02:09:48;;;;;;;;;10.00;8.00;;;;;17.97;45.51;100334.56;5056554;28;46475;-71
2021/11/04 02:12:22;;;;;;;;;7.67;7.67;;;;;17.96;45.79;100340.81;5056656;28;47185;-70
2021/11/04 02:14:55;;;;;;;;;7.67;7.67;;;;;17.97;45.80;100337.22;5056771;28;45362;-71
2021/11/04 02:17:23;;;;;;;;;5.33;5.33;;;;;17.96;45.84;100341.66;5056695;28;45419;-73
2021/11/04 02:19:52;;;;;;;;;6.33;6.33;;;;;17.96;45.46;100333.69;5056920;28;45339;-72
2021/11/04 02:22:47;;;;;;;;;7.67;7.67;;;;;17.95;45.52;100334.63;5056237;28;47150;-71
2021/11/04 02:25:19;;;;;;;;;9.00;8.67;;;;;17.94;45.75;100331.06;5056509;28;45397;-71
2021/11/04 02:27:49;;;;;;;;;7.33;7.00;;;;;17.94;45.59;100338.16;5056608;28;45405;-73
2021/11/04 02:30:16;;;;;;;;;7.00;6.00;;;;;17.94;45.36;100349.69;5056661;28;45372;-70
2021/11/04 02:32:43;;;;;;;;;9.00;6.33;;;;;17.94;45.35;100351.47;5056315;28;47566;-70
2021/11/04 02:35:09;;;;;;;;;10.33;8.33;;;;;17.93;45.62;100358.59;5056112;28;45438;-67
2021/11/04 02:37:36;;;;;;;;;6.00;6.00;;;;;17.94;45.61;100354.13;5057257;28;45460;-64
2021/11/04 02:40:03;;;;;;;;;8.67;8.67;;;;;17.92;45.47;100354.16;5058794;28;45340;-69
2021/11/04 02:42:29;;;;;;;;;8.67;7.00;;;;;17.92;45.38;100351.50;5058250;28;46212;-63
2021/11/04 02:44:55;;;;;;;;;8.00;6.67;;;;;17.93;45.55;100355.94;5058022;28;45398;-63
2021/11/04 02:47:21;;;;;;;;;6.67;6.67;;;;;17.93;45.53;100352.38;5058315;28;45378;-74
2021/11/04 02:49:48;;;;;;;;;9.00;7.67;;;;;17.93;45.37;100358.59;5058552;28;45424;-71
2021/11/04 02:52:15;;;;;;;;;7.00;6.00;;;;;17.93;45.38;100357.69;5058412;28;46190;-69
2021/11/04 02:54:55;;;;;;;;;7.00;7.00;;;;;17.93;45.53;100360.34;5058468;28;45260;-70
2021/11/04 02:57:21;;;;;;;;;8.00;8.00;;;;;17.92;45.71;100362.13;5058267;28;45404;-72
2021/11/04 02:59:48;;;;;;;;;10.33;8.00;;;;;17.91;45.70;100356.84;5058525;28;45389;-72
2021/11/04 03:02:14;;;;;;;;;7.00;7.00;;;;;17.93;45.58;100360.34;5057993;28;46168;-68
2021/11/04 03:04:39;;;;;;;;;10.00;8.67;;;;;17.92;45.69;100367.44;5057885;28;45288;-70
2021/11/04 03:07:05;;;;;;;;;5.33;5.33;;;;;17.92;45.46;100367.44;5057941;28;45328;-72
2021/11/04 03:09:31;;;;;;;;;8.33;8.33;;;;;17.92;45.56;100361.25;5058094;28;45314;-67
2021/11/04 03:11:56;;;;;;;;;7.67;7.00;;;;;17.92;45.56;100369.22;5057977;28;47364;-70
2021/11/04 03:14:22;;;;;;;;;8.67;7.33;;;;;17.92;45.35;100366.56;5057969;28;45314;-69
2021/11/04 03:16:52;;;;;;;;;8.67;7.67;;;;;17.91;45.57;100364.84;5058155;28;45429;-65
2021/11/04 03:19:19;;;;;;;;;10.33;9.00;;;;;17.91;45.44;100370.16;5058106;28;45561;-64
2021/11/04 03:21:47;;;;;;;;;7.00;7.00;;;;;17.91;45.61;100365.72;5057898;28;46576;-66
2021/11/04 03:24:20;;;;;;;;;6.67;6.67;;;;;17.91;45.39;100364.84;5057890;28;45367;-68
2021/11/04 03:26:50;;;;;;;;;6.67;6.00;;;;;17.90;45.57;100360.41;5057892;28;45458;-64
2021/11/04 03:29:17;;;;;;;;;10.67;9.00;;;;;17.90;45.60;100368.38;5057999;28;45456;-68
2021/11/04 03:31:45;;;;;;;;;8.00;8.00;;;;;17.90;45.29;100366.59;5057622;28;47063;-66
2021/11/04 03:34:12;;;;;;;;;9.00;8.33;;;;;17.90;45.29;100373.69;5057759;28;45286;-71
2021/11/04 03:36:40;;;;;;;;;8.00;8.00;;;;;17.90;45.57;100368.38;5057585;28;45488;-67
2021/11/04 03:39:05;;;;;;;;;7.67;7.00;;;;;17.88;45.48;100371.06;5058009;28;45325;-70
2021/11/04 03:41:34;;;;;;;;;7.33;6.33;;;;;17.88;45.35;100371.06;5057044;28;46456;-71
2021/11/04 03:43:59;;;;;;;;;8.67;7.67;;;;;17.89;45.34;100382.59;5057605;28;45256;-70
2021/11/04 03:46:26;;;;;;;;;7.00;6.33;;;;;17.89;45.26;100378.16;5057355;28;45254;-72
2021/11/04 03:48:53;;;;;;;;;8.00;8.00;;;;;17.89;45.55;100383.47;5057791;28;45331;-67
2021/11/04 03:51:19;;;;;;;;;7.00;5.67;;;;;17.89;45.72;100377.28;5057346;28;46822;-73
2021/11/04 03:53:46;;;;;;;;;7.00;7.00;;;;;17.88;45.46;100387.03;5057310;28;45306;-71
2021/11/04 03:56:12;;;;;;;;;6.67;6.67;;;;;17.88;45.41;100379.06;5057212;28;45459;-72
2021/11/04 03:58:39;;;;;;;;;7.00;7.00;;;;;17.88;45.35;100380.81;5056905;28;45467;-70
2021/11/04 04:01:06;;;;;;;;;8.00;8.00;;;;;17.88;45.47;100387.03;5056980;28;47023;-72
2021/11/04 04:03:32;;;;;;;;;6.67;6.67;;;;;17.89;45.71;100385.25;5056900;28;45382;-65
2021/11/04 04:06:05;;;;;;;;;9.00;9.00;;;;;17.88;45.57;100389.69;5057313;28;45621;-67
2021/11/04 04:08:33;;;;;;;;;6.67;5.67;;;;;17.89;45.62;100394.13;5057106;28;45331;-69
2021/11/04 04:10:59;;;;;;;;;10.33;7.67;;;;;17.88;45.43;100381.72;5056903;28;46175;-69
2021/11/04 04:13:25;;;;;;;;;6.67;6.33;;;;;17.89;45.35;100394.13;5057065;28;45394;-66
2021/11/04 04:15:50;;;;;;;;;8.00;6.00;;;;;17.88;45.75;100402.97;5056978;28;45325;-68
2021/11/04 04:18:16;;;;;;;;;7.67;7.00;;;;;17.87;45.64;100393.28;5057168;28;45404;-67
2021/11/04 04:20:42;;;;;;;;;6.33;6.33;;;;;17.88;45.75;100394.13;5056998;28;46934;-71
2021/11/04 04:23:07;;;;;;;;;7.00;7.00;;;;;17.88;45.39;100402.97;5056883;28;45452;-69
2021/11/04 04:25:33;;;;;;;;;8.00;7.00;;;;;17.89;45.42;100393.22;5057021;28;45427;-70
2021/11/04 04:27:59;;;;;;;;;8.33;8.00;;;;;17.87;45.51;100401.25;5057138;28;45432;-73
2021/11/04 04:30:25;;;;;;;;;11.67;10.00;;;;;17.88;45.44;100404.75;5056385;28;46098;-69
2021/11/04 04:32:51;;;;;;;;;10.00;8.00;;;;;17.88;45.29;100402.97;5056786;28;45307;-72
2021/11/04 04:35:16;;;;;;;;;8.33;7.67;;;;;17.88;45.60;100408.31;5056852;28;45313;-68
2021/11/04 04:37:42;;;;;;;;;11.33;9.00;;;;;17.87;45.28;100409.22;5057202;28;45425;-73
2021/11/04 04:40:08;;;;;;;;;8.33;7.00;;;;;17.87;45.20;100414.53;5056795;28;46012;-73
2021/11/04 04:42:33;;;;;;;;;8.67;7.00;;;;;17.87;45.64;100422.53;5056742;28;45408;-67
2021/11/04 04:44:58;;;;;;;;;9.00;9.00;;;;;17.87;45.49;100427.84;5056571;28;45350;-68
2021/11/04 04:47:24;;;;;;;;;9.33;6.00;;;;;17.87;45.36;100443.78;5057007;28;45417;-72
2021/11/04 04:49:49;;;;;;;;;7.00;7.00;;;;;17.86;45.71;100426.06;5056319;28;46133;-66
2021/11/04 04:52:16;;;;;;;;;7.33;6.00;;;;;17.87;45.25;100438.47;5056663;28;45388;-73
2021/11/04 04:54:42;;;;;;;;;8.67;8.67;;;;;17.87;45.32;100429.59;5056655;28;45309;-70
2021/11/04 04:57:07;;;;;;;;;7.33;7.00;;;;;17.86;45.48;100433.16;5056795;28;45373;-69
2021/11/04 04:59:32;;;;;;;;;7.00;6.00;;;;;17.86;45.27;100430.50;5056548;28;45171;-71
2021/11/04 05:01:58;;;;;;;;;6.00;6.00;;;;;17.85;45.57;100429.66;5056249;28;45418;-67
2021/11/04 05:04:23;;;;;;;;;6.67;6.33;;;;;17.86;45.52;100435.81;5056465;28;45255;-71
2021/11/04 05:06:49;;;;;;;;;11.33;7.00;;;;;17.85;45.75;100437.63;5056433;28;45207;-73
2021/11/04 05:09:15;;;;;;;;;9.67;8.00;;;;;17.84;45.64;100427.88;5058593;28;46964;-70
2021/11/04 05:11:40;;;;;;;;;7.33;7.33;;;;;17.85;45.40;100426.97;5060125;28;45323;-72
2021/11/04 05:14:06;;;;;;;;;11.33;7.00;;;;;17.85;45.64;100434.06;5059924;28;45500;-73
2021/11/04 05:16:31;;;;;;;;;7.33;6.33;;;;;17.85;45.62;100437.63;5060068;28;45352;-70
2021/11/04 05:18:57;;;;;;;;;8.00;7.00;;;;;17.85;45.74;100429.66;5059465;28;47172;-71
2021/11/04 05:21:22;;;;;;;;;7.00;7.00;;;;;17.85;45.84;100429.66;5059791;28;45424;-68
2021/11/04 05:23:47;;;;;;;;;7.00;7.00;;;;;17.85;45.52;100440.28;5059857;28;45896;-68
2021/11/04 05:26:13;;;;;;;;;7.00;6.00;;;;;17.85;45.61;100431.41;5058590;28;45583;-72
2021/11/04 05:28:38;;;;;;;;;8.00;5.67;;;;;17.84;45.89;100441.16;5059610;28;46219;-70
2021/11/04 05:31:04;;;;;;;;;8.00;8.00;;;;;17.85;45.77;100439.41;5059479;28;45388;-68
2021/11/04 05:33:29;;;;;;;;;5.00;5.00;;;;;17.85;45.46;100456.22;5075416;28;45499;-73
2021/11/04 05:35:55;;;;;;;;;6.00;6.00;;;;;17.84;45.82;100449.16;5059744;28;45360;-67
2021/11/04 05:38:20;;;;;;;;;7.33;7.00;;;;;17.85;45.64;100455.34;5059355;28;47282;-68
2021/11/04 05:40:45;;;;;;;;;6.00;6.00;;;;;17.83;45.78;100453.56;5059491;28;45467;-68
2021/11/04 05:43:11;;;;;;;;;6.33;6.00;;;;;17.84;45.73;100459.78;5059716;28;45297;-71
2021/11/04 05:45:36;;;;;;;;;8.00;8.00;;;;;17.85;45.92;100452.69;5059688;28;45508;-68
2021/11/04 05:48:02;;;;;;;;;8.67;7.67;;;;;17.86;45.72;100454.44;5041388;28;47217;-71
2021/11/04 05:50:27;;;;;;;;;7.67;7.00;;;;;17.84;46.13;100449.16;5039031;28;45238;-72
2021/11/04 05:52:52;;;;;;;;;7.67;7.67;;;;;17.85;46.01;100450.03;5038744;28;45256;-71
2021/11/04 05:55:18;;;;;;;;;6.67;6.67;;;;;17.86;45.87;100457.09;5039209;28;45366;-69
2021/11/04 05:57:43;;;;;;;;;7.00;7.00;;;;;17.85;45.96;100461.56;5039130;28;46568;-71
2021/11/04 06:00:09;;;;;;;;;5.33;5.33;;;;;17.86;45.76;100462.41;5038982;28;45370;-72
2021/11/04 06:02:35;;;;;;;;;6.67;6.33;;;;;17.86;46.00;100467.72;5038598;28;45206;-67
2021/11/04 06:05:01;;;;;;;;;6.00;5.67;;;;;17.85;45.94;100461.56;5038959;28;45270;-72
2021/11/04 06:07:28;;;;;;;;;6.00;6.00;;;;;17.85;46.30;100461.56;5038439;28;47092;-67
2021/11/04 06:09:53;;;;;;;;;7.67;7.67;;;;;17.85;46.02;100466.88;5038514;28;45390;-69
2021/11/04 06:12:19;;;;;;;;;8.67;6.33;;;;;17.84;46.10;100465.09;5038476;28;45398;-66
2021/11/04 06:14:44;;;;;;;;;5.00;5.00;;;;;17.85;46.16;100469.53;5038907;28;45275;-67
2021/11/04 06:17:10;;;;;;;;;7.00;5.67;;;;;17.85;46.14;100471.31;5038884;28;45903;-64
2021/11/04 06:19:35;;;;;;;;;6.33;6.33;;;;;17.84;45.91;100462.44;5037748;28;45420;-73
2021/11/04 06:22:01;;;;;;;;;6.33;6.00;;;;;17.85;46.20;100474.84;5038404;28;45306;-72
2021/11/04 06:24:26;;;;;;;;;6.67;6.67;;;;;17.85;46.32;100482.81;5039031;28;45845;-69
2021/11/04 06:26:51;;;;;;;;;8.33;6.67;;;;;17.85;46.09;100480.16;5038345;28;47061;-73
2021/11/04 06:29:17;;;;;;;;;6.00;6.00;;;;;17.86;45.84;100473.03;5038416;28;45329;-67
2021/11/04 06:31:42;;;;;;;;;7.67;7.00;;;;;17.86;46.21;100479.25;5037926;28;45802;-68
2021/11/04 06:34:08;;;;;;;;;7.33;6.00;;;;;17.85;45.97;100482.81;5038557;28;45213;-69
2021/11/04 06:36:33;;;;;;;;;8.00;6.33;;;;;17.87;46.28;100486.34;5038301;28;46023;-63
2021/11/04 06:39:00;;;;;;;;;6.67;6.33;;;;;17.87;46.21;100496.97;5037044;28;45314;-71
2021/11/04 06:41:25;;;;;;;;;5.00;5.00;;;;;17.87;46.00;100490.75;5053522;28;45386;-63
2021/11/04 06:43:51;;;;;;;;;7.67;6.00;;;;;17.86;46.12;100492.53;5038370;28;45220;-72
2021/11/04 06:46:23;;;;;;;;;6.33;5.00;;;;;17.87;46.23;100491.66;5038056;28;46109;-64
2021/11/04 06:48:56;;;;;;;;;10.00;6.33;;;;;17.87;46.24;100491.66;5038156;28;45375;-65
2021/11/04 06:51:23;;;;;;;;;7.00;5.00;;;;;17.87;46.36;100502.28;5037908;28;45329;-63
2021/11/04 06:53:54;;;;;;;;;5.00;5.00;;;;;17.87;46.30;100496.09;5038119;28;45302;-69
2021/11/04 06:56:21;;;;;;;;;6.00;6.00;;;;;17.87;46.33;100506.72;5037873;28;45409;-64
2021/11/04 06:58:49;;;;;;;;;5.00;5.00;;;;;17.87;46.38;100512.03;5037805;28;45371;-64
2021/11/04 07:01:16;;;;;;;;;5.33;5.33;;;;;17.86;46.48;100519.13;5037990;28;45268;-68
2021/11/04 07:03:58;;;;;;;;;8.00;7.00;;;;;17.86;46.28;100516.47;5036825;28;45351;-69
2021/11/04 07:06:25;;;;;;;;;8.67;7.33;;;;;17.83;46.26;100514.72;5037736;28;47307;-67
2021/11/04 07:09:04;;;;;;;;;7.00;5.00;;;;;17.84;46.60;100523.59;5037604;28;45486;-67
2021/11/04 07:11:34;;;;;;;;;5.67;5.67;;;;;17.83;46.69;100517.38;5038138;28;45416;-73
2021/11/04 07:14:00;;;;;;;;;5.00;4.67;;;;;17.84;46.63;100520.94;5038135;28;45292;-69
2021/11/04 07:16:27;;;;;;;;;7.00;7.00;;;;;17.84;46.77;100526.25;5037648;28;46058;-67
2021/11/04 07:18:55;;;;;;;;;5.00;5.00;;;;;17.85;46.69;100533.34;5037729;28;45313;-72
2021/11/04 07:21:42;;;;;;;;;4.67;4.67;;;;;17.85;46.45;100535.13;5037707;28;45417;-67
2021/11/04 07:24:08;;;;;;;;;5.00;5.00;;;;;17.84;46.65;100542.22;5037610;28;45454;-73
2021/11/04 07:26:41;;;;;;;;;5.00;4.00;;;;;17.85;46.83;100543.97;5037557;28;46351;-70
2021/11/04 07:29:09;;;;;;;;;6.67;5.00;;;;;17.84;46.53;100547.53;5037261;28;45413;-68
2021/11/04 07:31:38;;;;;;;;;5.67;4.33;;;;;17.86;46.46;100552.81;5037545;28;45378;-70
2021/11/04 07:34:06;;;;;;;;;5.33;4.67;;;;;17.86;46.50;100558.13;5038001;28;45757;-71
2021/11/04 07:36:33;;;;;;;;;5.00;5.00;;;;;17.83;46.57;100562.59;5037346;28;46208;-74
2021/11/04 07:38:59;;;;;;;;;5.00;5.00;;;;;17.85;46.66;100562.59;5037549;28;45306;-73
2021/11/04 07:41:24;;;;;;;;;5.00;5.00;;;;;17.85;46.56;100573.22;5037232;28;45342;-67
2021/11/04 07:43:50;;;;;;;;;5.00;5.00;;;;;17.85;46.57;100578.53;5037553;28;45544;-69
2021/11/04 07:46:17;;;;;;;;;7.00;6.00;;;;;17.85;46.40;100583.88;5037487;28;45333;-73
2021/11/04 07:48:42;;;;;;;;;5.33;5.33;;;;;17.86;46.68;100592.69;5037541;28;45623;-70
2021/11/04 07:51:09;;;;;;;;;4.67;4.67;;;;;17.87;46.44;100599.78;5037456;28;45452;-71
2021/11/04 07:53:35;;;;;;;;;4.00;4.00;;;;;17.85;46.47;100594.50;5037364;28;45502;-73
2021/11/04 07:56:00;;;;;;;;;6.00;5.00;;;;;17.85;46.39;100599.81;5036611;28;45386;-65
2021/11/04 07:58:26;;;;;;;;;5.00;5.00;;;;;17.86;46.64;100601.56;5037067;28;45838;-66
2021/11/04 08:00:51;;;;;;;;;5.33;5.33;;;;;17.86;46.68;100603.34;5052714;28;45634;-70
2021/11/04 08:03:16;;;;;;;;;4.00;4.00;;;;;17.87;46.32;100600.66;5037323;28;45448;-62
2021/11/04 08:05:42;;;;;;;;;4.33;4.00;;;;;17.87;46.84;100606.00;5037099;28;46585;-66
2021/11/04 08:08:08;;;;;;;;;5.00;5.00;;;;;17.87;46.65;100613.09;5036720;28;45395;-71
2021/11/04 08:10:34;;;;;;;;;5.00;4.00;;;;;17.86;46.64;100609.53;5037150;28;45372;-70
2021/11/04 08:13:06;;;;;;;;;5.33;4.00;;;;;17.86;46.60;100609.53;5037047;28;45324;-69
2021/11/04 08:15:31;;;;;;;;;6.00;6.00;;;;;17.87;46.47;100621.94;5036670;28;46279;-72
2021/11/04 08:17:59;;;;;;;;;3.67;3.67;;;;;17.88;46.67;100618.38;5036663;28;45259;-65
2021/11/04 08:20:25;;;;;;;;;5.33;5.00;;;;;17.86;46.65;100617.50;5037036;28;45232;-71
2021/11/04 08:22:50;;;;;;;;;5.33;4.00;;;;;17.87;46.29;100624.59;5037064;28;45298;-67
2021/11/04 08:25:15;;;;;;;;;4.00;4.00;;;;;17.86;46.55;100627.25;5036992;28;46218;-70
2021/11/04 08:27:41;;;;;;;;;5.00;5.00;;;;;17.87;46.78;100623.72;5036469;28;45555;-67
2021/11/04 08:30:06;;;;;;;;;5.33;4.33;;;;;17.87;46.54;100629.03;5036887;28;45314;-71
2021/11/04 08:32:32;;;;;;;;;3.67;3.67;;;;;17.87;46.54;100634.34;5036849;28;45417;-70
2021/11/04 08:34:58;;;;;;;;;3.33;3.33;;;;;17.87;46.68;100637.91;5036759;28;45935;-65
2021/11/04 08:37:23;;;;;;;;;5.33;5.33;;;;;17.87;46.75;100639.66;5036471;28;45359;-68
2021/11/04 08:39:48;;;;;;;;;7.00;4.00;;;;;17.87;46.74;100637.91;5036809;28;45334;-71
2021/11/04 08:42:15;;;;;;;;;4.00;4.00;;;;;17.87;46.69;100645.88;5036990;28;45484;-69
2021/11/04 08:44:41;;;;;;;;;4.00;4.00;;;;;17.88;46.76;100654.72;5035839;28;46171;-66
2021/11/04 08:47:08;;;;;;;;;5.00;4.00;;;;;17.88;47.02;100654.72;5035871;28;45469;-70
2021/11/04 08:49:34;;;;;;;;;5.33;4.00;;;;;17.88;46.56;100657.38;5036685;28;45338;-66
2021/11/04 08:51:59;;;;;;;;;4.00;4.00;;;;;17.88;46.74;100662.69;5036684;28;45378;-68
2021/11/04 08:54:25;;;;;;;;;4.67;3.00;;;;;17.88;46.77;100663.56;5036119;28;46435;-64
2021/11/04 08:56:51;;;;;;;;;3.67;3.67;;;;;17.89;46.69;100664.47;5036371;28;45248;-62
2021/11/04 08:59:17;;;;;;;;;6.00;4.00;;;;;17.89;46.60;100660.03;5036510;28;45227;-66
2021/11/04 09:01:44;;;;;;;;;4.00;4.00;;;;;17.89;46.69;100664.47;5036333;28;45351;-62
2021/11/04 09:04:11;;;;;;;;;3.67;3.67;;;;;17.89;46.92;100669.78;5036106;28;46997;-63
2021/11/04 09:06:37;;;;;;;;;4.67;4.00;;;;;17.89;46.57;100669.78;5035915;28;45444;-66
2021/11/04 09:09:04;;;;;;;;;3.33;3.33;;;;;17.89;46.90;100665.34;5036048;28;45295;-64
2021/11/04 09:11:30;;;;;;;;;6.67;5.00;;;;;17.90;46.52;100674.19;5036623;28;45452;-65
2021/11/04 09:13:58;;;;;;;;;7.00;5.00;;;;;17.90;46.82;100682.16;5035825;28;45435;-72
2021/11/04 09:16:23;;;;;;;;;5.00;5.00;;;;;17.90;46.90;100687.47;5036015;28;45429;-71
2021/11/04 09:18:49;;;;;;;;;5.67;5.00;;;;;17.90;46.77;100685.69;5035885;28;45377;-72
2021/11/04 09:21:14;;;;;;;;;4.00;4.00;;;;;17.88;46.93;100687.50;5036486;28;45454;-74
2021/11/04 09:23:39;;;;;;;;;4.00;4.00;;;;;17.92;46.83;100696.31;5035818;28;47170;-72
2021/11/04 09:26:05;;;;;;;;;5.00;4.00;;;;;17.91;46.83;100697.22;5035949;28;45310;-69
2021/11/04 09:28:30;;;;;;;;;3.33;3.33;;;;;17.90;46.75;100704.31;5035986;28;45224;-68
2021/11/04 09:30:56;;;;;;;;;4.00;4.00;;;;;17.91;46.66;100703.44;5035932;28;45385;-69
2021/11/04 09:33:21;;;;;;;;;4.00;4.00;;;;;17.91;46.71;100702.53;5036053;28;45934;-66
2021/11/04 09:35:46;;;;;;;;;3.00;3.00;;;;;17.91;46.83;100705.22;5036266;28;45268;-68
2021/11/04 09:38:12;;;;;;;;;4.33;4.00;;;;;17.90;46.92;100699.00;5036299;28;45374;-73
2021/11/04 09:40:37;;;;;;;;;2.33;2.33;;;;;17.91;46.83;100706.09;5036075;28;45428;-74
2021/11/04 09:43:05;;;;;;;;;3.00;3.00;;;;;17.91;46.79;100702.53;5035902;28;46017;-71
2021/11/04 09:45:31;;;;;;;;;5.33;4.33;;;;;17.91;46.97;100706.09;5035404;28;45248;-72
2021/11/04 09:47:57;;;;;;;;;3.00;3.00;;;;;17.92;46.75;100707.84;5035502;28;45405;-74
2021/11/04 09:50:22;;;;;;;;;4.67;3.00;;;;;17.91;47.14;100706.09;5035867;28;45240;-74
2021/11/04 09:52:54;;;;;;;;;3.33;3.33;;;;;17.92;46.86;100718.47;5035526;28;46079;-74
2021/11/04 09:55:30;;;;;;;;;4.67;3.67;;;;;17.93;46.97;100714.03;5036584;28;45299;-71
2021/11/04 09:57:58;;;;;;;;;3.00;3.00;;;;;17.92;47.05;100721.13;5038983;28;45339;-73
2021/11/04 10:00:34;;;;;;;;;4.00;3.00;;;;;17.92;47.00;100723.78;5039427;28;45358;-73
2021/11/04 10:03:11;;;;;;;;;4.67;3.67;;;;;17.91;46.88;100723.81;5038859;28;45544;-74
2021/11/04 10:05:48;;;;;;;;;4.00;4.00;;;;;17.92;46.73;100726.44;5037137;28;45367;-71
2021/11/04 10:08:16;;;;;;;;;4.00;3.00;;;;;17.92;46.65;100733.53;5038765;28;45323;-68
2021/11/04 10:10:43;;;;;;;;;4.00;4.00;;;;;17.91;46.58;100731.81;5038941;28;45408;-63
2021/11/04 10:13:11;;;;;;;;;3.00;3.00;;;;;17.93;46.86;100730.88;5038581;28;45327;-65
2021/11/04 10:15:40;;;;;;;;;3.67;3.67;;;;;17.93;46.71;100730.00;5038595;28;45424;-63
2021/11/04 10:18:17;;;;;;;;;3.33;3.00;;;;;17.92;46.76;100734.44;5038312;28;45528;-64
2021/11/04 10:20:53;;;;;;;;;3.00;3.00;;;;;17.94;46.90;100742.38;5039173;28;45235;-65
2021/11/04 10:23:18;;;;;;;;;4.00;4.00;;;;;17.93;46.76;100732.66;5037027;28;48058;-67
2021/11/04 10:25:44;;;;;;;;;3.67;3.00;;;;;17.94;47.03;100737.06;5038679;28;45444;-69
2021/11/04 10:28:30;;;;;;;;;4.00;4.00;;;;;17.94;46.86;100737.94;5038560;28;45607;-68
2021/11/04 10:30:57;;;;;;;;;3.00;3.00;;;;;17.93;46.60;100738.88;5038655;28;45513;-74
2021/11/04 10:33:25;;;;;;;;;4.00;4.00;;;;;17.93;46.64;100744.19;5038439;28;47197;-65
2021/11/04 10:35:58;;;;;;;;;3.00;3.00;;;;;17.94;46.70;100737.94;5038280;28;45414;-67
2021/11/04 10:38:35;;;;;;;;;5.67;4.00;;;;;17.96;46.75;100745.03;5038318;28;45476;-72
2021/11/04 10:41:10;;;;;;;;;4.00;3.00;;;;;17.94;47.09;100745.94;5038685;28;45370;-71
2021/11/04 10:43:36;;;;;;;;;3.00;2.00;;;;;17.94;46.83;100740.59;5038190;28;46251;-73
2021/11/04 10:46:10;;;;;;;;;3.00;3.00;;;;;17.94;46.98;100748.59;5038213;28;45388;-73
2021/11/04 10:48:36;;;;;;;;;2.00;2.00;;;;;17.95;46.67;100749.47;5038127;28;45492;-75
2021/11/04 10:51:02;;;;;;;;;3.67;3.00;;;;;17.94;46.87;100748.59;5038357;28;45220;-72
2021/11/04 10:53:27;;;;;;;;;4.67;3.00;;;;;17.95;46.79;100752.13;5037754;28;45807;-73
2021/11/04 10:55:55;;;;;;;;;4.00;3.00;;;;;17.96;46.93;100751.22;5038135;28;45374;-70
2021/11/04 10:58:32;;;;;;;;;3.67;3.67;;;;;17.96;47.06;100747.72;5038359;28;45362;-72
2021/11/04 11:00:59;;;;;;;;;3.67;2.67;;;;;17.97;46.83;100752.09;5038159;28;45339;-70
2021/11/04 11:03:25;;;;;;;;;2.67;2.67;;;;;17.96;46.79;100761.84;5037653;28;46351;-69
2021/11/04 11:05:55;;;;;;;;;3.00;3.00;;;;;17.97;46.78;100762.75;5037529;28;45353;-67
2021/11/04 11:08:20;;;;;;;;;3.00;3.00;;;;;17.94;46.85;100764.53;5037683;28;45405;-66
2021/11/04 11:10:46;;;;;;;;;3.33;3.33;;;;;17.96;46.96;100772.50;5038451;28;45322;-73
2021/11/04 11:13:11;;;;;;;;;3.00;2.00;;;;;17.96;47.03;100775.16;5037828;28;46085;-74
2021/11/04 11:15:43;;;;;;;;;1.00;1.00;;;;;17.96;47.17;100776.97;5037764;28;45400;-70
2021/11/04 11:18:09;;;;;;;;;3.00;3.00;;;;;17.95;46.77;100781.38;5037868;28;45368;-70
2021/11/04 11:20:45;;;;;;;;;3.00;3.00;;;;;17.96;46.98;100782.28;5037836;28;45459;-67
2021/11/04 11:23:13;;;;;;;;;3.00;3.00;;;;;17.96;46.85;100780.47;5037493;28;46024;-72